Time;durP1;ratioP1;P1;durP2;ratioP2;P2;SDS_P1;SDS_P2;PMS_P1;PMS_P2;Temp;Humidity;BMP_temperature;BMP_pressure;BME280_temperature;BME280_humidity;BME280_pressure;Samples;Min_cycle;Max_cycle;Signal;HPM_P1;HPM_P2
2022/01/18 00:00:30;;;;;;;24.45;4.68;;;8.20;99.90;;;6.85;100.00;102612.00;6123934;23;20416;-83
2022/01/18 00:02:59;;;;;;;32.65;5.18;;;8.20;99.90;;;6.84;100.00;102606.69;6151419;23;20028;-84
2022/01/18 00:05:27;;;;;;;28.60;4.95;;;8.20;99.90;;;6.86;100.00;102604.75;6150717;23;20025;-84
2022/01/18 00:07:57;;;;;;;28.00;4.78;;;8.20;99.90;;;6.80;100.00;102595.22;6151497;23;20029;-84
2022/01/18 00:10:27;;;;;;;30.38;5.05;;;8.20;99.90;;;6.81;100.00;102593.38;6151946;23;20191;-84
2022/01/18 00:13:07;;;;;;;29.65;4.97;;;8.20;99.90;;;6.79;100.00;102592.63;6152457;23;20113;-84
2022/01/18 00:15:41;;;;;;;28.08;5.10;;;8.40;99.90;;;6.74;100.00;102586.66;6152092;23;20084;-84
2022/01/18 00:18:14;;;;;;;29.63;5.38;;;8.20;99.90;;;6.73;100.00;102587.66;6151934;23;20018;-84
2022/01/18 00:20:55;;;;;;;29.33;5.30;;;8.20;99.90;;;6.73;100.00;102598.47;6152254;23;20021;-83
2022/01/18 00:23:24;;;;;;;27.00;4.90;;;8.20;99.90;;;6.73;100.00;102602.03;6152304;23;20096;-83
2022/01/18 00:25:54;;;;;;;23.63;4.65;;;8.20;99.90;;;6.72;100.00;102603.03;6152086;23;20026;-84
2022/01/18 00:28:22;;;;;;;22.77;4.28;;;8.20;99.90;;;6.71;100.00;102603.13;6152187;23;20404;-84
2022/01/18 00:33:55;;;;;;;31.02;5.18;;;8.20;99.90;;;6.72;100.00;102612.97;6132950;23;20112;-84
2022/01/18 00:36:27;;;;;;;25.23;4.95;;;8.20;99.90;;;6.75;100.00;102610.91;6151908;23;20017;-83
2022/01/18 00:38:56;;;;;;;30.15;4.20;;;8.20;99.90;;;6.78;100.00;102617.97;6175037;23;20033;-84
2022/01/18 00:41:25;;;;;;;21.25;4.50;;;8.20;99.90;;;6.81;100.00;102626.69;6152137;23;20014;-83
2022/01/18 00:43:54;;;;;;;24.75;4.82;;;8.20;99.90;;;6.79;100.00;102627.78;6151975;23;20096;-84
2022/01/18 00:46:23;;;;;;;24.00;4.57;;;8.20;99.90;;;6.80;100.00;102635.81;6151911;23;20018;-84
2022/01/18 00:48:55;;;;;;;28.23;4.70;;;8.20;99.90;;;6.80;100.00;102634.94;6151698;23;20048;-84
2022/01/18 00:51:23;;;;;;;21.50;4.55;;;8.20;99.90;;;6.71;100.00;102636.44;6151640;23;20024;-84
2022/01/18 00:53:51;;;;;;;27.23;4.93;;;8.20;99.90;;;6.72;100.00;102631.91;6151749;23;20401;-84
2022/01/18 00:56:22;;;;;;;27.58;4.90;;;8.20;99.90;;;6.68;100.00;102630.38;6151760;23;20052;-84
2022/01/18 00:58:51;;;;;;;25.10;5.00;;;8.20;99.90;;;6.70;100.00;102639.25;6151807;23;20072;-84
2022/01/18 01:01:22;;;;;;;24.05;4.60;;;8.20;99.90;;;6.74;100.00;102638.06;6150917;23;20025;-84
2022/01/18 01:03:52;;;;;;;23.80;4.83;;;8.20;99.90;;;6.60;100.00;102645.31;6152063;23;20021;-84
2022/01/18 01:06:20;;;;;;;34.63;6.93;;;8.20;99.90;;;6.60;100.00;102655.28;6151859;23;20249;-84
2022/01/18 01:08:47;;;;;;;25.15;4.72;;;8.20;99.90;;;6.63;100.00;102661.34;6149973;23;20455;-83
2022/01/18 01:11:14;;;;;;;31.08;4.88;;;8.20;99.90;;;6.65;100.00;102658.53;6151502;23;20021;-84
2022/01/18 01:13:46;;;;;;;26.77;4.70;;;8.50;99.90;;;6.63;100.00;102658.63;6151271;23;20052;-83
2022/01/18 01:16:39;;;;;;;30.00;5.10;;;8.20;99.90;;;6.64;100.00;102640.56;6151632;23;20696;-84
2022/01/18 01:19:27;;;;;;;25.80;4.38;;;8.20;99.90;;;6.63;100.00;102647.81;6151568;23;20355;-84
2022/01/18 01:41:49;;;;;;;27.67;4.78;;;8.20;99.90;;;6.73;100.00;102661.56;6151623;23;20076;-84
2022/01/18 01:44:26;;;;;;;30.40;4.35;;;8.20;99.90;;;6.74;100.00;102662.41;6151209;23;20028;-84
2022/01/18 01:46:54;;;;;;;34.38;5.30;;;8.30;99.90;;;6.75;100.00;102661.47;6151555;23;20021;-84
2022/01/18 01:49:23;;;;;;;26.05;5.05;;;8.20;99.90;;;6.72;100.00;102665.25;6151478;23;20096;-84
2022/01/18 01:51:52;;;;;;;34.63;4.45;;;8.20;99.90;;;6.70;100.00;102661.78;6151368;23;20530;-84
2022/01/18 01:54:19;;;;;;;27.00;4.88;;;8.20;99.90;;;6.71;100.00;102659.94;6124797;23;20368;-84
2022/01/18 01:56:47;;;;;;;37.70;4.72;;;8.20;99.90;;;6.74;100.00;102659.72;6151302;23;20026;-84
2022/01/18 01:59:14;;;;;;;27.00;4.70;;;8.20;99.90;;;6.75;100.00;102664.16;6151053;23;20021;-84
2022/01/18 02:01:45;;;;;;;36.63;6.38;;;8.20;99.90;;;6.75;100.00;102656.91;6151048;23;20045;-84
2022/01/18 02:04:13;;;;;;;30.85;4.82;;;8.20;99.90;;;6.77;100.00;102651.41;6150849;23;20041;-84
2022/01/18 02:06:41;;;;;;;28.08;4.47;;;8.20;99.90;;;6.79;100.00;102654.84;6151347;23;20518;-83
2022/01/18 02:09:10;;;;;;;27.13;4.43;;;8.20;99.90;;;6.79;100.00;102660.28;6151481;23;20021;-83
2022/01/18 02:11:38;;;;;;;24.88;4.20;;;8.20;99.90;;;6.80;100.00;102662.03;6151477;23;20052;-84
2022/01/18 02:14:07;;;;;;;24.63;5.25;;;8.20;99.90;;;6.73;100.00;102649.88;6151344;23;20052;-84
2022/01/18 02:22:07;;;;;;;25.33;4.80;;;8.20;99.90;;;6.72;100.00;102649.03;6151186;23;20032;-84
2022/01/18 02:24:34;;;;;;;28.65;5.30;;;8.20;99.90;;;6.68;100.00;102650.19;6150449;23;20021;-83
2022/01/18 02:27:02;;;;;;;37.88;4.85;;;8.20;99.90;;;6.70;100.00;102640.16;6151041;23;20026;-84
2022/01/18 02:29:29;;;;;;;25.63;4.65;;;8.20;99.90;;;6.72;100.00;102640.00;6151030;23;20044;-84
2022/01/18 02:31:57;;;;;;;25.42;4.13;;;8.20;99.90;;;6.73;100.00;102634.50;6150943;23;20052;-84
2022/01/18 02:34:26;;;;;;;31.90;4.68;;;8.10;99.90;;;6.76;100.00;102638.81;6150714;23;20718;-84
2022/01/18 02:36:54;;;;;;;29.85;5.05;;;8.10;99.90;;;6.69;100.00;102629.44;6150876;23;20026;-84
2022/01/18 02:39:25;;;;;;;32.20;5.05;;;8.10;99.90;;;6.72;100.00;102640.00;6150729;23;20092;-84
2022/01/18 02:41:55;;;;;;;31.58;4.95;;;8.10;99.90;;;6.63;100.00;102641.53;6151184;23;20037;-84
2022/01/18 02:44:23;;;;;;;32.25;5.32;;;8.20;99.90;;;6.54;100.00;102640.31;6150657;23;20080;-83
2022/01/18 02:46:50;;;;;;;25.17;5.32;;;8.20;99.90;;;6.61;100.00;102644.34;6151020;23;20026;-84
2022/01/18 02:49:18;;;;;;;30.88;5.32;;;8.20;99.90;;;6.62;100.00;102647.91;6151122;23;20076;-84
2022/01/18 02:51:46;;;;;;;30.17;5.60;;;8.20;99.90;;;6.59;100.00;102643.59;6150798;23;20076;-84
2022/01/18 02:54:15;;;;;;;33.20;5.70;;;8.10;99.90;;;6.62;100.00;102635.25;6150688;23;20098;-84
2022/01/18 02:56:48;;;;;;;22.70;4.90;;;8.20;99.90;;;6.67;100.00;102648.47;6151135;23;20124;-84
2022/01/18 02:59:21;;;;;;;21.73;4.15;;;8.20;99.90;;;6.68;100.00;102646.63;6150838;23;20021;-84
2022/01/18 03:04:39;;;;;;;38.25;5.53;;;8.10;99.90;;;6.58;100.00;102654.50;6150610;23;20032;-84
2022/01/18 03:07:07;;;;;;;22.73;4.47;;;8.20;99.90;;;6.63;100.00;102649.66;6149969;23;20116;-84
2022/01/18 03:09:34;;;;;;;30.95;5.78;;;8.10;99.90;;;6.59;100.00;102648.13;6148851;23;20120;-84
2022/01/18 03:12:06;;;;;;;31.40;5.00;;;8.20;99.90;;;6.65;100.00;102656.69;6148831;23;20045;-84
2022/01/18 03:14:33;;;;;;;;;;;8.20;99.90;;;6.61;100.00;102654.31;6150811;23;20022;-84
2022/01/18 03:17:00;;;;;;;28.67;4.78;;;8.20;99.90;;;6.61;100.00;102651.59;6150721;23;19927;-84
2022/01/18 03:19:27;;;;;;;31.67;5.65;;;8.20;99.90;;;6.62;100.00;102653.31;6150679;23;20079;-84
2022/01/18 03:21:56;;;;;;;27.95;4.75;;;8.20;99.90;;;6.63;100.00;102660.47;6150914;23;20022;-84
2022/01/18 03:24:44;;;;;;;28.98;5.35;;;8.20;99.90;;;6.68;100.00;102662.84;6124213;23;20377;-84
2022/01/18 03:30:00;;;;;;;25.50;4.75;;;8.10;99.90;;;6.68;100.00;102661.00;6150704;23;20014;-84
2022/01/18 03:32:27;;;;;;;30.27;4.80;;;8.10;99.90;;;6.69;100.00;102653.78;6150662;23;20013;-84
2022/01/18 03:34:54;;;;;;;36.30;5.25;;;8.10;99.90;;;6.65;100.00;102664.81;6150396;23;20112;-84
2022/01/18 03:37:21;;;;;;;23.83;4.60;;;8.10;99.90;;;6.63;100.00;102655.94;6151390;23;20017;-84
2022/01/18 03:39:49;;;;;;;31.73;5.72;;;8.10;99.90;;;6.65;100.00;102659.38;6152768;23;20100;-84
2022/01/18 03:42:40;;;;;;;26.70;4.38;;;8.10;99.90;;;6.64;100.00;102663.09;6126305;23;20120;-84
2022/01/18 03:45:09;;;;;;;;;;;8.10;99.90;;;6.65;100.00;102653.13;6152884;23;20456;-84
2022/01/18 03:47:37;;;;;;;27.88;4.85;;;8.10;99.90;;;6.63;100.00;102653.22;6152675;23;19917;-84
2022/01/18 03:50:07;;;;;;;29.52;4.90;;;8.10;99.90;;;6.59;100.00;102654.41;6152648;23;20041;-84
2022/01/18 03:52:34;;;;;;;26.77;4.40;;;8.10;99.90;;;6.59;100.00;102659.81;6152561;23;20052;-84
2022/01/18 03:55:02;;;;;;;21.90;4.47;;;8.10;99.90;;;6.55;100.00;102662.81;6152640;23;20474;-84
2022/01/18 03:57:31;;;;;;;28.05;4.82;;;8.10;99.90;;;6.57;100.00;102666.31;6152637;23;20045;-84
2022/01/18 03:59:58;;;;;;;27.60;5.07;;;8.10;99.90;;;6.52;100.00;102663.06;6126501;23;20045;-84
2022/01/18 04:02:26;;;;;;;25.88;4.20;;;8.10;99.90;;;6.45;100.00;102668.00;6152612;23;20408;-84
2022/01/18 04:04:53;;;;;;;22.90;4.93;;;8.10;99.90;;;6.43;100.00;102676.22;6152424;23;20344;-84
2022/01/18 04:07:20;;;;;;;22.35;4.32;;;8.10;99.90;;;6.41;100.00;102670.03;6152098;23;20025;-84
2022/01/18 04:09:48;;;;;;;24.50;4.45;;;8.10;99.90;;;6.49;100.00;102680.34;6152834;23;20056;-84
2022/01/18 04:12:15;;;;;;;34.35;5.03;;;8.10;99.90;;;6.45;100.00;102679.72;6152536;23;20154;-84
2022/01/18 04:14:44;;;;;;;18.95;3.80;;;8.10;99.90;;;6.50;100.00;102675.81;6152156;23;20462;-84
2022/01/18 04:17:19;;;;;;;24.52;4.85;;;8.10;99.90;;;6.46;100.00;102676.00;6152438;23;20538;-84
2022/01/18 04:28:08;;;;;;;23.10;4.28;;;8.10;99.90;;;6.29;100.00;102672.72;6152078;23;20029;-91
2022/01/18 04:30:37;;;;;;;25.05;4.35;;;8.10;99.90;;;6.37;100.00;102663.13;6174035;23;20473;-90
2022/01/18 04:33:05;;;;;;;23.05;3.88;;;8.10;99.90;;;6.40;100.00;102670.16;6181635;23;20025;-91
2022/01/18 04:35:32;;;;;;;20.15;3.75;;;8.10;99.90;;;6.41;100.00;102672.75;6156260;23;20029;-91
2022/01/18 04:38:00;;;;;;;20.25;3.80;;;8.10;99.90;;;6.36;100.00;102658.69;6157000;23;20341;-90
2022/01/18 04:40:30;;;;;;;20.30;3.38;;;8.00;99.90;;;6.36;100.00;102656.00;6156847;23;20021;-91
2022/01/18 04:43:08;;;;;;;20.55;3.50;;;8.00;99.90;;;6.40;100.00;102653.94;6182019;23;20025;-91
2022/01/18 04:48:27;;;;;;;20.23;3.05;;;8.00;99.90;;;6.22;100.00;102654.19;6155914;23;20108;-89
2022/01/18 04:50:57;;;;;;;21.33;3.00;;;8.00;99.90;;;6.33;100.00;102663.44;6206416;23;20025;-90
2022/01/18 04:53:26;;;;;;;15.05;3.17;;;8.00;99.90;;;6.35;100.00;102661.50;6181340;23;20021;-92
2022/01/18 04:55:56;;;;;;;28.63;3.30;;;8.00;99.90;;;6.39;100.00;102663.88;6206457;23;20021;-91
2022/01/18 04:58:24;;;;;;;18.30;3.63;;;8.00;99.90;;;6.40;100.00;102664.75;6206127;23;20029;-91
2022/01/18 05:00:58;;;;;;;19.58;3.17;;;8.00;99.90;;;6.38;100.00;102672.97;6156703;23;20025;-91
2022/01/18 05:03:26;;;;;;;17.52;3.28;;;8.00;99.90;;;6.37;100.00;102670.38;6181345;23;20068;-92
2022/01/18 05:05:56;;;;;;;21.60;4.00;;;8.00;99.90;;;6.41;100.00;102674.59;6181168;23;20017;-91
2022/01/18 05:08:24;;;;;;;21.70;5.03;;;8.00;99.90;;;6.43;100.00;102680.75;6179414;23;20033;-84
2022/01/18 05:10:55;;;;;;;24.05;5.05;;;8.10;99.90;;;6.40;100.00;102689.97;6181147;23;20031;-83
2022/01/18 05:13:45;;;;;;;26.52;4.20;;;8.00;99.90;;;6.38;100.00;102689.19;6182875;23;20130;-89
2022/01/18 05:16:40;;;;;;;22.87;4.10;;;8.00;99.90;;;6.31;100.00;102695.13;6183513;23;20056;-96
2022/01/18 05:27:13;;;;;;;30.55;6.65;;;8.10;99.90;;;6.39;100.00;102698.19;5952626;24;20092;-95
2022/01/18 05:33:42;;;;;;;29.60;6.97;;;8.10;99.90;;;6.42;100.00;102712.38;5964677;23;20072;-92
2022/01/18 05:36:11;;;;;;;32.85;6.72;;;8.10;99.90;;;6.47;100.00;102698.50;6122580;23;20608;-91
2022/01/18 05:38:39;;;;;;;35.55;6.30;;;8.10;99.90;;;6.49;100.00;102701.97;6122225;23;20034;-90
2022/01/18 05:41:10;;;;;;;38.10;6.63;;;8.10;99.90;;;6.51;100.00;102699.19;6180704;23;20017;-90
2022/01/18 05:43:38;;;;;;;38.03;7.20;;;8.10;99.90;;;6.50;100.00;102701.03;6181842;23;20101;-91
2022/01/18 05:46:06;;;;;;;33.17;6.97;;;8.10;99.90;;;6.54;100.00;102704.38;6179857;23;20033;-91
2022/01/18 05:48:34;;;;;;;33.97;8.18;;;8.10;99.90;;;6.54;100.00;102705.25;6180047;23;20067;-90
2022/01/18 05:51:02;;;;;;;34.45;6.50;;;8.10;99.90;;;6.44;100.00;102702.31;6154707;23;20029;-89
2022/01/18 05:53:31;;;;;;;36.22;6.97;;;8.10;99.90;;;6.51;100.00;102704.59;6204609;23;20060;-88
2022/01/18 05:55:59;;;;;;;34.13;7.28;;;8.10;99.90;;;6.53;100.00;102711.66;6181232;23;20071;-90
2022/01/18 05:58:26;;;;;;;33.80;7.30;;;8.10;99.90;;;6.55;100.00;102717.81;6204903;23;20048;-89
2022/01/18 06:00:55;;;;;;;38.10;6.97;;;8.10;99.90;;;6.57;100.00;102704.19;6181297;23;20013;-91
2022/01/18 06:03:27;;;;;;;38.22;7.53;;;8.10;99.90;;;6.56;100.00;102703.31;6179549;23;20458;-90
2022/01/18 06:08:42;;;;;;;41.63;8.07;;;8.10;99.90;;;6.46;100.00;102697.66;6182536;23;20028;-89
2022/01/18 06:11:10;;;;;;;37.45;8.57;;;8.10;99.90;;;6.39;100.00;102706.28;6153620;23;20032;-89
2022/01/18 06:13:37;;;;;;;38.33;8.38;;;8.10;99.90;;;6.39;100.00;102698.19;6181375;23;20045;-91
2022/01/18 06:16:05;;;;;;;36.47;8.23;;;8.10;99.90;;;6.29;100.00;102694.38;6179377;23;20079;-90
2022/01/18 06:18:32;;;;;;;45.05;9.27;;;8.10;99.90;;;6.26;100.00;102696.31;6154721;23;20025;-90
2022/01/18 06:21:01;;;;;;;40.38;10.43;;;8.10;99.90;;;6.18;100.00;102697.78;6181092;23;20810;-89
2022/01/18 06:23:31;;;;;;;38.03;10.93;;;8.10;99.90;;;6.18;100.00;102700.47;6154907;23;20108;-91
2022/01/18 06:26:02;;;;;;;35.25;11.23;;;8.10;99.90;;;6.16;100.00;102694.31;6155921;23;20027;-89
2022/01/18 06:28:31;;;;;;;46.28;11.20;;;8.00;99.90;;;6.17;100.00;102691.50;6154545;23;20112;-90
2022/01/18 06:30:58;;;;;;;33.60;10.05;;;8.00;99.90;;;6.23;100.00;102696.50;6180939;23;20472;-90
2022/01/18 06:33:26;;;;;;;39.30;10.43;;;8.00;99.90;;;6.32;100.00;102699.56;6154739;23;20025;-90
2022/01/18 06:35:53;;;;;;;39.55;11.23;;;8.00;99.90;;;6.25;100.00;102699.97;6154394;23;20025;-89
2022/01/18 06:38:22;;;;;;;36.50;10.73;;;8.00;99.90;;;6.31;100.00;102701.41;6181725;23;20622;-90
2022/01/18 06:40:50;;;;;;;40.63;11.70;;;8.00;99.90;;;6.21;100.00;102701.16;6179409;23;20025;-91
2022/01/18 06:43:17;;;;;;;45.60;11.18;;;7.90;99.90;;;6.24;100.00;102711.78;6179916;23;20029;-90
2022/01/18 06:45:45;;;;;;;39.25;10.98;;;8.00;99.90;;;6.18;100.00;102701.34;6179447;23;20025;-89
2022/01/18 06:48:12;;;;;;;38.15;10.93;;;8.00;99.90;;;6.25;100.00;102710.78;6179617;23;20025;-90
2022/01/18 06:50:40;;;;;;;38.35;12.55;;;8.00;99.90;;;6.24;100.00;102709.06;6179261;23;20029;-90
2022/01/18 06:53:08;;;;;;;51.05;13.05;;;8.00;99.90;;;6.18;100.00;102706.75;6154742;23;20021;-92
2022/01/18 06:55:37;;;;;;;40.95;13.10;;;8.00;99.90;;;6.19;100.00;102715.75;6154191;23;20035;-90
2022/01/18 06:58:05;;;;;;;41.53;13.38;;;8.00;99.90;;;6.18;100.00;102714.00;6154661;23;20103;-90
2022/01/18 07:00:32;;;;;;;48.75;13.75;;;8.00;99.90;;;6.15;100.00;102723.19;6154103;23;20021;-92
2022/01/18 07:02:59;;;;;;;47.03;14.27;;;8.00;99.90;;;6.22;100.00;102724.50;6154229;23;20047;-91
2022/01/18 07:05:32;;;;;;;47.40;13.33;;;8.00;99.90;;;6.17;100.00;102726.66;6153895;23;20538;-90
2022/01/18 07:07:59;;;;;;;41.92;13.05;;;8.00;99.90;;;6.20;100.00;102723.72;6154076;23;20367;-91
2022/01/18 07:10:27;;;;;;;45.13;13.55;;;8.00;99.90;;;6.17;100.00;102718.53;6179187;23;20024;-91
2022/01/18 07:12:57;;;;;;;42.78;13.43;;;8.00;99.90;;;6.21;100.00;102722.78;6178945;23;20045;-91
2022/01/18 07:15:26;;;;;;;42.72;11.55;;;8.00;99.90;;;6.29;100.00;102719.56;6178753;23;20355;-91
2022/01/18 07:17:54;;;;;;;35.47;11.88;;;8.00;99.90;;;6.37;100.00;102724.47;6154844;23;20044;-90
2022/01/18 07:20:21;;;;;;;43.95;13.00;;;8.00;99.90;;;6.34;100.00;102730.06;6178921;23;20784;-90
2022/01/18 07:22:48;;;;;;;38.40;12.20;;;8.00;99.90;;;6.40;100.00;102725.13;6154738;23;20087;-91
2022/01/18 07:25:17;;;;;;;38.97;12.32;;;8.00;99.90;;;6.42;100.00;102733.13;6179342;23;20021;-91
2022/01/18 07:27:45;;;;;;;38.08;12.48;;;8.00;99.90;;;6.40;100.00;102740.50;6154727;23;20041;-91
2022/01/18 07:30:14;;;;;;;46.63;12.68;;;8.00;99.90;;;6.44;100.00;102736.59;6178795;23;20435;-89
2022/01/18 07:32:41;;;;;;;49.70;12.52;;;8.00;99.90;;;6.48;100.00;102729.16;6178476;23;20399;-91
2022/01/18 07:35:12;;;;;;;49.58;13.18;;;8.00;99.90;;;6.44;100.00;102732.06;6153292;23;20029;-91
2022/01/18 07:37:39;;;;;;;40.37;13.33;;;8.00;99.90;;;6.45;100.00;102738.31;6154319;23;20033;-91
2022/01/18 07:40:08;;;;;;;48.88;13.77;;;8.00;99.90;;;6.42;100.00;102739.41;6203853;23;20056;-90
2022/01/18 07:42:35;;;;;;;51.17;14.45;;;8.00;99.90;;;6.45;100.00;102741.03;6154107;23;20396;-91
2022/01/18 07:45:04;;;;;;;39.00;13.32;;;8.00;99.90;;;6.42;100.00;102747.53;6178671;23;20036;-91
2022/01/18 07:47:32;;;;;;;48.72;13.60;;;8.00;99.90;;;6.41;100.00;102750.31;6154097;23;20025;-91
2022/01/18 07:50:00;;;;;;;36.92;13.98;;;8.10;99.90;;;6.45;100.00;102754.56;6179324;23;20021;-92
2022/01/18 07:52:29;;;;;;;40.67;13.90;;;8.10;99.90;;;6.46;100.00;102756.31;6154212;23;20017;-91
2022/01/18 07:54:56;;;;;;;41.38;14.80;;;8.10;99.90;;;6.39;100.00;102754.97;6153686;23;20021;-92
2022/01/18 07:57:24;;;;;;;46.17;14.75;;;8.10;99.90;;;6.36;100.00;102749.75;6179067;23;20123;-91
2022/01/18 07:59:51;;;;;;;50.70;15.48;;;8.10;99.90;;;6.42;100.00;102749.38;6203706;23;20029;-89
2022/01/18 08:02:18;;;;;;;43.83;14.85;;;8.10;99.90;;;6.51;100.00;102750.56;6179028;23;20367;-90
2022/01/18 08:04:47;;;;;;;53.03;15.02;;;8.10;99.90;;;6.52;100.00;102746.91;6153500;23;20025;-91
2022/01/18 08:07:14;;;;;;;45.10;15.45;;;8.10;99.90;;;6.58;100.00;102752.75;6178763;23;20025;-90
2022/01/18 08:09:42;;;;;;;39.63;15.07;;;8.10;99.90;;;6.59;100.00;102756.34;6153480;23;20045;-91
2022/01/18 08:12:10;;;;;;;45.03;14.85;;;8.10;99.90;;;6.55;100.00;102760.22;6178775;23;20088;-90
2022/01/18 08:14:42;;;;;;;46.35;16.40;;;8.10;99.90;;;6.51;100.00;102756.88;6178467;23;20390;-91
2022/01/18 08:17:10;;;;;;;50.42;15.63;;;8.20;99.90;;;6.54;100.00;102762.06;6180534;23;20025;-91
2022/01/18 08:19:38;;;;;;;45.47;15.50;;;8.20;99.90;;;6.56;100.00;102762.81;6203738;23;20021;-90
2022/01/18 08:22:07;;;;;;;55.85;16.02;;;8.20;99.90;;;6.61;100.00;102760.69;6154473;23;20029;-91
2022/01/18 08:24:34;;;;;;;42.38;14.25;;;8.20;99.90;;;6.60;100.00;102764.34;6180058;23;20358;-91
2022/01/18 08:27:01;;;;;;;32.80;14.45;;;8.20;99.90;;;6.64;100.00;102765.00;6180807;23;20025;-91
2022/01/18 08:29:30;;;;;;;47.90;15.40;;;8.20;99.90;;;6.65;100.00;102764.91;6182045;23;20048;-90
2022/01/18 08:31:57;;;;;;;43.13;15.98;;;8.20;99.90;;;6.71;100.00;102762.78;6155451;23;20027;-91
2022/01/18 08:34:24;;;;;;;45.17;14.85;;;8.20;99.90;;;6.72;100.00;102757.25;6155040;23;20525;-89
2022/01/18 08:36:52;;;;;;;36.28;16.02;;;8.30;99.90;;;6.68;100.00;102755.72;6181812;23;20108;-89
2022/01/18 08:39:20;;;;;;;44.75;16.80;;;8.30;99.90;;;6.70;100.00;102764.63;6179969;23;20044;-90
2022/01/18 08:41:48;;;;;;;48.50;15.48;;;8.30;99.90;;;6.80;100.00;102764.84;6181825;23;20084;-90
2022/01/18 08:44:15;;;;;;;39.50;15.90;;;8.30;99.90;;;6.86;100.00;102764.44;6204599;23;20021;-91
2022/01/18 08:46:43;;;;;;;47.00;14.85;;;8.30;99.90;;;6.89;100.00;102753.38;6180252;23;20020;-90
2022/01/18 08:49:10;;;;;;;52.05;16.13;;;8.30;99.90;;;6.91;100.00;102761.41;6181281;23;20024;-90
2022/01/18 08:51:38;;;;;;;53.65;16.02;;;8.30;99.90;;;6.86;100.00;102764.44;6182001;23;20068;-90
2022/01/18 08:54:07;;;;;;;43.00;16.25;;;8.40;99.90;;;6.91;100.00;102773.13;6155504;23;20107;-90
2022/01/18 08:56:35;;;;;;;45.10;16.70;;;8.40;99.90;;;6.89;100.00;102772.31;6182306;23;20087;-90
2022/01/18 08:59:03;;;;;;;44.45;15.98;;;8.40;99.90;;;6.87;100.00;102782.38;6179986;23;20060;-90
2022/01/18 09:01:30;;;;;;;36.20;15.48;;;8.40;99.90;;;6.86;100.00;102769.84;6181944;23;20025;-90
2022/01/18 09:03:57;;;;;;;41.35;14.63;;;8.40;99.90;;;6.93;100.00;102765.75;6155649;23;20050;-90
2022/01/18 09:06:25;;;;;;;44.30;16.05;;;8.50;99.90;;;6.85;100.00;102755.47;6155214;23;20037;-91
2022/01/18 09:08:56;;;;;;;55.03;16.23;;;8.50;99.90;;;6.84;100.00;102763.69;6154551;23;20025;-89
2022/01/18 09:11:26;;;;;;;45.35;16.15;;;8.50;99.90;;;6.84;100.00;102761.81;6155162;23;20410;-90
2022/01/18 09:13:55;;;;;;;43.40;15.07;;;8.50;99.90;;;6.87;100.00;102765.28;6154664;23;20025;-90
2022/01/18 09:16:23;;;;;;;42.38;14.65;;;8.60;99.90;;;7.00;100.00;102766.19;6179657;23;20116;-90
2022/01/18 09:18:51;;;;;;;37.60;14.60;;;8.60;99.90;;;7.05;100.00;102775.72;6180099;23;20025;-90
2022/01/18 09:21:19;;;;;;;42.70;15.27;;;8.60;99.90;;;7.10;100.00;102780.84;6154994;23;20351;-90
2022/01/18 09:23:46;;;;;;;35.13;14.45;;;8.60;99.90;;;7.15;100.00;102775.09;6155147;23;20021;-90
2022/01/18 09:26:14;;;;;;;50.78;15.50;;;8.70;99.90;;;7.18;100.00;102786.59;6181707;23;20075;-90
2022/01/18 09:28:42;;;;;;;36.83;13.40;;;8.70;99.90;;;7.16;100.00;102787.63;6155664;23;20025;-82
2022/01/18 09:31:11;;;;;;;46.42;13.82;;;8.70;99.90;;;7.20;100.00;102794.59;6181395;23;20025;-89
2022/01/18 09:33:38;;;;;;;40.92;14.80;;;8.70;99.90;;;7.15;100.00;102786.78;6181632;23;20028;-88
2022/01/18 09:36:06;;;;;;;42.95;15.23;;;8.80;99.90;;;7.21;100.00;102791.75;6154439;23;20083;-89
2022/01/18 09:38:33;;;;;;;41.72;15.32;;;8.80;99.90;;;7.27;100.00;102795.03;6181385;23;20021;-89
2022/01/18 09:41:08;;;;;;;50.08;16.50;;;8.80;99.90;;;7.24;100.00;102802.41;6181355;23;20032;-89
2022/01/18 09:43:37;;;;;;;46.30;15.85;;;8.80;99.90;;;7.28;100.00;102802.19;6181409;23;20056;-89
2022/01/18 09:46:06;;;;;;;49.22;16.50;;;8.80;99.90;;;7.27;100.00;102801.31;6154603;23;20108;-89
2022/01/18 09:48:35;;;;;;;48.38;17.23;;;8.80;99.90;;;7.32;100.00;102810.00;6181519;23;20036;-89
2022/01/18 09:51:02;;;;;;;43.95;15.88;;;8.90;99.90;;;7.31;100.00;102815.50;6181502;23;20021;-88
2022/01/18 09:53:30;;;;;;;48.08;17.75;;;8.90;99.90;;;7.32;100.00;102809.13;6154953;23;20043;-89
2022/01/18 09:55:57;;;;;;;45.20;16.13;;;8.90;99.90;;;7.35;100.00;102811.59;6154628;23;20017;-89
2022/01/18 09:58:24;;;;;;;38.85;16.98;;;8.90;99.90;;;7.31;100.00;102816.41;6181375;23;20029;-89
2022/01/18 10:00:52;;;;;;;46.10;17.52;;;8.90;99.90;;;7.40;100.00;102813.03;6154521;23;20029;-89
2022/01/18 10:03:29;;;;;;;49.83;17.58;;;8.90;99.90;;;7.40;100.00;102809.47;6175177;23;20036;-89
2022/01/18 10:05:59;;;;;;;43.58;17.45;;;8.90;99.90;;;7.37;100.00;102810.56;6179422;23;20017;-88
2022/01/18 10:08:27;;;;;;;39.72;16.70;;;8.90;99.90;;;7.30;100.00;102811.09;6204146;23;20052;-89
2022/01/18 10:10:58;;;;;;;40.97;16.48;;;8.90;99.90;;;7.40;100.00;102801.31;6178170;23;20776;-89
2022/01/18 10:13:28;;;;;;;39.20;17.25;;;8.90;99.90;;;7.48;100.00;102801.66;6203860;23;20025;-89
2022/01/18 10:16:05;;;;;;;46.35;17.30;;;9.00;99.90;;;7.57;100.00;102803.72;6177472;23;20103;-89
2022/01/18 10:18:37;;;;;;;40.58;16.50;;;9.00;99.90;;;7.59;100.00;102806.31;6180752;23;20025;-89
2022/01/18 10:21:08;;;;;;;40.78;15.35;;;9.00;99.90;;;7.62;100.00;102806.13;6180429;23;20100;-89
2022/01/18 10:23:36;;;;;;;37.47;15.27;;;9.00;99.90;;;7.53;100.00;102802.19;6204276;23;20036;-89
2022/01/18 10:26:21;;;;;;;47.78;15.60;;;9.00;99.90;;;7.44;100.00;102801.03;6180271;23;20020;-89
2022/01/18 10:28:49;;;;;;;38.20;15.48;;;9.10;99.90;;;7.51;100.00;102803.28;6180257;23;20839;-87
2022/01/18 10:31:32;;;;;;;36.85;15.93;;;9.10;99.90;;;7.53;100.00;102796.78;6204424;23;20422;-86
2022/01/18 10:34:42;;;;;;;41.70;15.95;;;9.10;99.90;;;7.61;100.00;102798.94;6154597;23;20021;-88
2022/01/18 10:37:13;;;;;;;37.00;15.93;;;9.10;99.90;;;7.62;100.00;102796.13;6153320;23;20025;-87
2022/01/18 10:39:42;;;;;;;39.40;16.00;;;9.00;99.90;;;7.63;100.00;102802.41;6154436;23;20533;-87
2022/01/18 10:42:19;;;;;;;35.60;13.95;;;9.00;99.90;;;7.60;100.00;102791.81;6181162;23;20075;-87
2022/01/18 10:44:48;;;;;;;43.25;15.43;;;9.10;99.90;;;7.61;100.00;102798.94;6180438;23;20021;-86
2022/01/18 10:47:17;;;;;;;31.45;14.05;;;9.00;99.90;;;7.63;100.00;102794.28;6153237;23;20052;-87
2022/01/18 10:49:47;;;;;;;36.22;13.63;;;9.00;99.90;;;7.65;100.00;102786.91;6180576;23;20017;-86
2022/01/18 10:52:21;;;;;;;32.15;13.35;;;9.00;99.90;;;7.69;100.00;102785.75;6180013;23;20021;-87
2022/01/18 10:54:51;;;;;;;31.00;12.88;;;9.00;99.90;;;7.67;100.00;102781.38;6178089;23;20467;-86
2022/01/18 10:57:24;;;;;;;41.47;13.95;;;9.00;99.90;;;7.69;100.00;102782.13;6178696;23;20056;-87
2022/01/18 10:59:57;;;;;;;35.40;15.32;;;9.10;99.90;;;7.65;100.00;102778.78;6154055;23;20028;-87
2022/01/18 11:02:25;;;;;;;42.13;15.50;;;9.10;99.90;;;7.67;100.00;102771.41;6180349;23;20044;-86
2022/01/18 11:04:55;;;;;;;45.92;16.48;;;9.10;99.90;;;7.69;100.00;102774.91;6180383;23;20021;-87
2022/01/18 11:07:27;;;;;;;35.05;15.80;;;9.10;99.90;;;7.70;100.00;102776.63;6178736;23;20029;-87
2022/01/18 11:09:55;;;;;;;34.33;15.45;;;9.10;99.90;;;7.70;100.00;102775.75;6180666;23;20021;-87
2022/01/18 11:12:27;;;;;;;43.97;17.30;;;9.10;99.90;;;7.72;100.00;102780.06;6180015;23;20056;-87
2022/01/18 11:15:04;;;;;;;38.22;15.88;;;9.10;99.90;;;7.72;100.00;102769.25;6180154;23;20088;-86
2022/01/18 11:17:39;;;;;;;35.78;15.88;;;9.10;99.90;;;7.70;100.00;102768.47;6203595;23;20029;-86
2022/01/18 11:20:08;;;;;;;35.42;15.57;;;9.20;99.90;;;7.66;100.00;102769.69;6153775;23;20451;-87